createdAt,value
2019-03-19T00:01:02.554Z,94904.69
2019-03-19T00:03:33.841Z,94899.28
2019-03-19T00:06:05.352Z,94902.66
2019-03-19T00:08:36.629Z,94900.53
2019-03-19T00:11:07.796Z,94903.16
2019-03-19T00:13:39.129Z,94899.81
2019-03-19T00:16:10.125Z,94901.84
2019-03-19T00:18:41.413Z,94909.47
2019-03-19T00:21:12.535Z,94909.22
2019-03-19T00:23:43.470Z,94909.23
2019-03-19T00:26:14.424Z,94909.90
2019-03-19T00:28:45.751Z,94913.76
2019-03-19T00:31:17.002Z,94909.80
2019-03-19T00:33:48.001Z,94904.63
2019-03-19T00:36:18.940Z,94902.35
2019-03-19T00:38:51.039Z,94895.98
2019-03-19T00:41:22.089Z,94898.31
2019-03-19T00:43:53.422Z,94903.91
2019-03-19T00:46:24.573Z,94906.68
2019-03-19T00:48:55.890Z,94904.49
2019-03-19T00:51:26.845Z,94905.52
2019-03-19T00:53:58.239Z,94909.27
2019-03-19T00:56:29.283Z,94918.30
2019-03-19T00:59:00.600Z,94913.88
2019-03-19T01:01:31.801Z,94910.34
2019-03-19T01:04:02.879Z,94916.09
2019-03-19T01:06:33.900Z,94919.34
2019-03-19T01:09:06.111Z,94913.83
2019-03-19T01:11:37.349Z,94914.98
2019-03-19T01:14:08.672Z,94922.81
2019-03-19T01:16:39.917Z,94921.03
2019-03-19T01:19:11.222Z,94924.44
2019-03-19T01:21:42.907Z,94925.91
2019-03-19T01:24:14.427Z,94924.10
2019-03-19T01:26:46.075Z,94936.16
2019-03-19T01:29:17.310Z,94934.31
2019-03-19T01:31:48.804Z,94935.50
2019-03-19T01:34:20.250Z,94940.52
2019-03-19T01:36:51.452Z,94939.20
2019-03-19T01:39:23.036Z,94945.56
2019-03-19T01:41:54.571Z,94947.34
2019-03-19T01:44:25.784Z,94940.84
2019-03-19T01:46:57.277Z,94946.48
2019-03-19T01:49:28.939Z,94946.48
2019-03-19T01:52:00.414Z,94945.17
2019-03-19T01:54:32.071Z,94945.13
2019-03-19T01:57:03.599Z,94948.86
2019-03-19T01:59:35.120Z,94951.17
2019-03-19T02:02:06.402Z,94955.04
2019-03-19T02:04:38.040Z,94961.88
2019-03-19T02:07:09.839Z,94966.12
2019-03-19T02:09:41.554Z,94968.35
2019-03-19T02:12:13.309Z,94967.41
2019-03-19T02:14:45.044Z,94974.03
2019-03-19T02:17:16.238Z,94976.15
2019-03-19T02:19:47.805Z,94976.15
2019-03-19T02:22:19.486Z,94976.91
2019-03-19T02:24:52.446Z,94984.27
2019-03-19T02:27:24.062Z,94988.77
2019-03-19T02:29:56.043Z,94992.45
2019-03-19T02:32:27.582Z,94996.48
2019-03-19T02:34:59.158Z,95000.52
2019-03-19T02:37:30.884Z,95001.17
2019-03-19T02:40:02.793Z,95005.69
2019-03-19T02:42:34.314Z,95012.56
2019-03-19T02:45:06.409Z,95016.38
2019-03-19T02:47:38.613Z,95020.98
2019-03-19T02:50:10.614Z,95028.88
2019-03-19T02:52:42.309Z,95026.77
2019-03-19T02:55:13.917Z,95041.20
2019-03-19T02:57:45.673Z,95041.17
2019-03-19T03:00:17.094Z,95037.76
2019-03-19T03:02:48.798Z,95048.30
2019-03-19T03:05:20.884Z,95044.64
2019-03-19T03:07:52.421Z,95051.42
2019-03-19T03:10:24.084Z,95044.69
2019-03-19T03:12:55.345Z,95043.27
2019-03-19T03:15:26.847Z,95045.87
2019-03-19T03:17:58.441Z,95050.16
2019-03-19T03:20:29.680Z,95056.45
2019-03-19T03:23:01.060Z,95060.42
2019-03-19T03:25:32.589Z,95061.59
2019-03-19T03:28:04.134Z,95068.24
2019-03-19T03:30:35.875Z,95070.51
2019-03-19T03:33:07.322Z,95073.09
2019-03-19T03:35:38.930Z,95071.88
2019-03-19T03:38:10.195Z,95072.29
2019-03-19T03:40:41.638Z,95075.78
2019-03-19T03:43:13.004Z,95077.08
2019-03-19T03:45:45.439Z,95079.59
2019-03-19T03:48:16.781Z,95077.34
2019-03-19T03:50:48.491Z,95077.19
2019-03-19T03:53:20.109Z,95079.27
2019-03-19T03:55:51.917Z,95081.98
2019-03-19T03:58:23.565Z,95082.77
2019-03-19T04:00:54.989Z,95091.56
2019-03-19T04:03:26.484Z,95098.58
2019-03-19T04:05:58.333Z,95104.59
2019-03-19T04:08:30.138Z,95112.72
2019-03-19T04:11:01.371Z,95113.31
2019-03-19T04:13:33.052Z,95112.64
2019-03-19T04:16:04.742Z,95107.78
2019-03-19T04:18:36.331Z,95110.92
2019-03-19T04:21:07.619Z,95104.79
2019-03-19T04:23:38.962Z,95118.78
2019-03-19T04:26:10.474Z,95116.46
2019-03-19T04:28:41.802Z,95116.81
2019-03-19T04:31:13.278Z,95121.73
2019-03-19T04:33:44.913Z,95117.28
2019-03-19T04:36:16.095Z,95125.63
2019-03-19T04:38:47.433Z,95123.70
2019-03-19T04:41:18.843Z,95126.59
2019-03-19T04:43:50.436Z,95135.41
2019-03-19T04:46:21.714Z,95144.63
2019-03-19T04:48:53.338Z,95138.31
2019-03-19T04:51:25.038Z,95142.20
2019-03-19T04:53:56.559Z,95151.91
2019-03-19T04:56:27.755Z,95148.98
2019-03-19T04:58:59.534Z,95153.17
2019-03-19T05:01:30.760Z,95157.75
2019-03-19T05:04:02.252Z,95156.11
2019-03-19T05:06:33.527Z,95165.14
2019-03-19T05:09:06.573Z,95164.95
2019-03-19T05:11:38.263Z,95166.88
2019-03-19T05:14:09.551Z,95165.20
2019-03-19T05:16:40.775Z,95166.06
2019-03-19T05:19:12.170Z,95171.92
2019-03-19T05:21:43.425Z,95175.38
2019-03-19T05:24:14.777Z,95173.08
2019-03-19T05:26:46.114Z,95174.13
2019-03-19T05:29:17.677Z,95174.85
2019-03-19T05:31:49.217Z,95175.33
2019-03-19T05:34:20.586Z,95174.86
2019-03-19T05:36:52.128Z,95178.72
2019-03-19T05:39:23.455Z,95181.61
2019-03-19T05:41:54.851Z,95172.75
2019-03-19T05:44:26.335Z,95180.16
2019-03-19T05:46:57.875Z,95175.48
2019-03-19T05:49:29.196Z,95175.54
2019-03-19T05:52:00.445Z,95180.72
2019-03-19T05:54:33.079Z,95179.58
2019-03-19T05:57:04.674Z,95175.83
2019-03-19T05:59:36.230Z,95179.70
2019-03-19T06:02:07.823Z,95184.22
2019-03-19T06:04:39.351Z,95182.89
2019-03-19T06:07:11.444Z,95182.91
2019-03-19T06:09:43.158Z,95184.58
2019-03-19T06:12:14.684Z,95188.00
2019-03-19T06:14:46.280Z,95183.94
2019-03-19T06:17:17.574Z,95180.61
2019-03-19T06:19:49.301Z,95185.25
2019-03-19T06:22:21.040Z,95185.25
2019-03-19T06:24:52.669Z,95189.13
2019-03-19T06:27:23.905Z,95194.47
2019-03-19T06:29:55.582Z,95192.88
2019-03-19T06:32:27.033Z,95192.88
2019-03-19T06:34:58.586Z,95199.55
2019-03-19T06:37:29.597Z,95199.95
2019-03-19T06:40:01.057Z,95200.87
2019-03-19T06:42:32.170Z,95195.26
2019-03-19T06:45:03.434Z,95199.03
2019-03-19T06:47:35.715Z,95202.78
2019-03-19T06:50:07.567Z,95199.14
2019-03-19T06:52:39.005Z,95201.59
2019-03-19T06:55:11.837Z,95196.03
2019-03-19T06:57:43.264Z,95199.80
2019-03-19T07:00:17.097Z,95201.73
2019-03-19T07:02:50.247Z,95208.64
2019-03-19T07:05:21.747Z,95202.39
2019-03-19T07:07:53.195Z,95200.13
2019-03-19T07:10:24.358Z,95202.58
2019-03-19T07:12:55.772Z,95207.16
2019-03-19T07:15:27.278Z,95205.16
2019-03-19T07:17:58.526Z,95206.00
2019-03-19T07:20:29.908Z,95201.92
2019-03-19T07:23:01.087Z,95210.86
2019-03-19T07:25:32.143Z,95210.27
2019-03-19T07:28:03.232Z,95206.02
2019-03-19T07:30:34.475Z,95209.06
2019-03-19T07:33:05.598Z,95210.38
2019-03-19T07:35:36.927Z,95209.41
2019-03-19T07:38:07.908Z,95208.95
2019-03-19T07:40:39.233Z,95204.17
2019-03-19T07:43:10.571Z,95204.09
2019-03-19T07:45:42.076Z,95206.85
2019-03-19T07:48:13.335Z,95198.94
2019-03-19T07:50:44.534Z,95209.88
2019-03-19T07:53:15.910Z,95211.71
2019-03-19T07:55:47.338Z,95209.16
2019-03-19T07:58:18.413Z,95211.52
2019-03-19T08:00:49.529Z,95208.30
2019-03-19T08:03:20.714Z,95220.30
2019-03-19T08:05:51.916Z,95213.22
2019-03-19T08:08:24.299Z,95211.17
2019-03-19T08:10:55.541Z,95210.00
2019-03-19T08:13:26.903Z,95198.25
2019-03-19T08:15:58.102Z,95204.05
2019-03-19T08:18:29.528Z,95200.10
2019-03-19T08:21:00.895Z,95195.91
2019-03-19T08:23:32.232Z,95206.12
2019-03-19T08:26:03.523Z,95198.63
2019-03-19T08:28:34.597Z,95198.41
2019-03-19T08:31:05.926Z,95195.12
2019-03-19T08:33:37.119Z,95190.67
2019-03-19T08:36:09.604Z,95195.55
2019-03-19T08:38:41.026Z,95183.45
2019-03-19T08:41:12.255Z,95191.48
2019-03-19T08:43:43.183Z,95191.48
2019-03-19T08:46:14.611Z,95188.72
2019-03-19T08:48:45.964Z,95197.17
2019-03-19T08:51:17.151Z,95183.81
2019-03-19T08:53:48.723Z,95183.81
2019-03-19T08:56:19.836Z,95179.95
2019-03-19T08:58:51.015Z,95186.22
2019-03-19T09:01:22.427Z,95181.97
2019-03-19T09:03:53.465Z,95181.97
2019-03-19T09:06:24.900Z,95183.84
2019-03-19T09:08:55.990Z,95181.15
2019-03-19T09:11:27.187Z,95177.70
2019-03-19T09:13:58.517Z,95186.01
2019-03-19T09:16:29.719Z,95185.58
2019-03-19T09:19:00.989Z,95182.36
2019-03-19T09:21:33.465Z,95182.36
2019-03-19T09:24:04.766Z,95181.34
2019-03-19T09:26:35.994Z,95181.34
2019-03-19T09:29:16.301Z,95178.30
2019-03-19T09:31:39.802Z,95175.20
2019-03-19T09:34:10.935Z,95179.58
2019-03-19T09:36:41.953Z,95178.80
2019-03-19T09:39:13.308Z,95177.09
2019-03-19T09:41:44.719Z,95173.81
2019-03-19T09:44:16.296Z,95164.86
2019-03-19T09:46:47.656Z,95164.86
2019-03-19T09:49:21.093Z,95175.39
2019-03-19T09:51:52.100Z,95175.39
2019-03-19T09:54:23.451Z,95170.83
2019-03-19T09:56:54.769Z,95166.92
2019-03-19T09:59:27.331Z,95163.97
2019-03-19T10:01:59.875Z,95165.26
2019-03-19T10:04:31.150Z,95162.41
2019-03-19T10:07:06.243Z,95172.34
2019-03-19T10:09:35.600Z,95163.30
2019-03-19T10:12:07.041Z,95171.28
2019-03-19T10:14:38.536Z,95162.60
2019-03-19T10:17:10.196Z,95155.95
2019-03-19T10:19:41.393Z,95145.63
2019-03-19T10:22:15.122Z,95142.94
2019-03-19T10:24:46.123Z,95141.11
2019-03-19T10:27:19.620Z,95141.24
2019-03-19T10:29:51.164Z,95138.02
2019-03-19T10:32:22.276Z,95139.26
2019-03-19T10:34:53.622Z,95142.59
2019-03-19T10:37:24.774Z,95142.48
2019-03-19T10:39:55.970Z,95134.86
2019-03-19T10:42:27.414Z,95133.84
2019-03-19T10:44:58.668Z,95139.61
2019-03-19T10:47:30.107Z,95129.03
2019-03-19T10:50:01.553Z,95126.57
2019-03-19T10:52:33.735Z,95125.38
2019-03-19T10:55:05.215Z,95121.31
2019-03-19T10:57:36.588Z,95115.13
2019-03-19T11:00:12.632Z,95115.31
2019-03-19T11:02:43.865Z,95115.42
2019-03-19T11:05:15.303Z,95111.58
2019-03-19T11:07:46.570Z,95112.70
2019-03-19T11:10:17.768Z,95097.41
2019-03-19T11:12:49.293Z,95102.45
2019-03-19T11:15:20.411Z,95102.00
2019-03-19T11:17:51.738Z,95102.31
2019-03-19T11:20:23.089Z,95097.02
2019-03-19T11:22:54.207Z,95090.81
2019-03-19T11:25:25.458Z,95087.34
2019-03-19T11:27:56.827Z,95088.95
2019-03-19T11:30:28.004Z,95079.95
2019-03-19T11:32:59.328Z,95078.63
2019-03-19T11:35:30.611Z,95073.10
2019-03-19T11:38:01.847Z,95074.26
2019-03-19T11:40:32.740Z,95065.62
2019-03-19T11:43:03.883Z,95071.42
2019-03-19T11:45:34.979Z,95065.38
2019-03-19T11:48:06.730Z,95068.17
2019-03-19T11:50:37.810Z,95066.88
2019-03-19T11:53:08.952Z,95069.08
2019-03-19T11:55:39.972Z,95057.84
2019-03-19T11:58:11.105Z,95063.69
2019-03-19T12:00:44.691Z,95060.33
2019-03-19T12:03:16.607Z,95056.63
2019-03-19T12:05:47.726Z,95052.41
2019-03-19T12:08:18.796Z,95047.52
2019-03-19T12:10:49.789Z,95049.01
2019-03-19T12:13:20.905Z,95049.51
2019-03-19T12:15:52.127Z,95052.82
2019-03-19T12:18:23.216Z,95043.26
2019-03-19T12:20:54.446Z,95040.66
2019-03-19T12:23:25.528Z,95034.05
2019-03-19T12:25:56.651Z,95037.20
2019-03-19T12:28:27.744Z,95036.80
2019-03-19T12:30:58.946Z,95028.92
2019-03-19T12:33:40.095Z,95030.27
2019-03-19T12:36:03.302Z,95031.72
2019-03-19T12:38:34.480Z,95031.16
2019-03-19T12:41:05.807Z,95027.64
2019-03-19T12:43:37.077Z,95024.32
2019-03-19T12:46:08.196Z,95024.27
2019-03-19T12:48:39.714Z,95017.85
2019-03-19T12:51:10.873Z,95018.60
2019-03-19T12:53:42.002Z,95014.98
2019-03-19T12:56:14.423Z,95018.73
2019-03-19T12:58:45.686Z,95018.11
2019-03-19T13:01:17.686Z,95017.59
2019-03-19T13:03:49.673Z,95021.02
2019-03-19T13:06:20.887Z,95020.62
2019-03-19T13:08:52.155Z,95019.41
2019-03-19T13:11:23.386Z,95023.89
2019-03-19T13:13:54.563Z,95023.00
2019-03-19T13:16:25.600Z,95024.63
2019-03-19T13:18:56.590Z,95021.81
2019-03-19T13:21:27.721Z,95017.45
2019-03-19T13:23:58.657Z,95021.95
2019-03-19T13:26:29.609Z,95021.36
2019-03-19T13:29:00.980Z,95019.70
2019-03-19T13:31:32.430Z,95019.25
2019-03-19T13:34:03.526Z,95016.05
2019-03-19T13:36:34.648Z,95022.14
2019-03-19T13:39:08.283Z,95014.65
2019-03-19T13:41:39.263Z,95016.72
2019-03-19T13:44:11.353Z,95017.17
2019-03-19T13:46:42.456Z,95022.76
2019-03-19T13:49:13.419Z,95019.14
2019-03-19T13:51:44.874Z,95020.58
2019-03-19T13:54:16.714Z,95022.06
2019-03-19T13:56:51.086Z,95022.87
2019-03-19T13:59:22.198Z,95020.69
2019-03-19T14:01:53.515Z,95020.17
2019-03-19T14:04:31.681Z,95018.66
2019-03-19T14:07:22.893Z,95017.72
2019-03-19T14:09:55.171Z,95016.47
2019-03-19T14:12:40.691Z,95022.27
2019-03-19T14:15:37.277Z,95019.05
2019-03-19T14:19:09.266Z,95011.52
2019-03-19T14:22:36.082Z,95011.63
2019-03-19T14:25:34.965Z,95030.55
2019-03-19T14:28:11.823Z,95023.02
2019-03-19T14:31:23.443Z,95024.64
2019-03-19T14:34:19.939Z,95023.41
2019-03-19T14:37:57.954Z,95027.89
2019-03-19T14:40:36.476Z,95029.12
2019-03-19T14:43:09.722Z,95024.86
2019-03-19T14:45:41.026Z,95035.80
2019-03-19T14:48:12.499Z,95035.98
2019-03-19T14:50:43.430Z,95044.12
2019-03-19T14:53:14.826Z,95046.06
2019-03-19T14:55:46.068Z,95044.13
2019-03-19T14:58:17.275Z,95050.92
2019-03-19T15:00:48.265Z,95052.67
2019-03-19T15:03:19.592Z,95051.98
2019-03-19T15:05:50.962Z,95052.59
2019-03-19T15:08:22.484Z,95058.98
2019-03-19T15:10:53.973Z,95061.89
2019-03-19T15:13:25.151Z,95063.59
2019-03-19T15:16:37.589Z,95068.19
2019-03-19T15:19:53.711Z,95071.27
2019-03-19T15:22:56.559Z,95073.28
2019-03-19T15:25:34.655Z,95085.50
2019-03-19T15:28:06.262Z,95082.36
2019-03-19T15:30:37.594Z,95083.58
2019-03-19T15:33:33.834Z,95078.38
2019-03-19T15:36:05.034Z,95080.05
2019-03-19T15:38:36.438Z,95093.14
2019-03-19T15:41:07.827Z,95092.23
2019-03-19T15:43:40.967Z,95091.53
2019-03-19T15:46:32.397Z,95099.20
2019-03-19T15:49:03.604Z,95105.88
2019-03-19T15:51:34.533Z,95101.63
2019-03-19T15:54:05.607Z,95110.49
2019-03-19T15:56:36.826Z,95112.98
2019-03-19T15:59:07.805Z,95110.80
2019-03-19T16:01:40.638Z,95131.44
2019-03-19T16:04:11.882Z,95146.14
2019-03-19T16:06:42.866Z,95143.95
2019-03-19T16:09:14.029Z,95149.10
2019-03-19T16:11:45.224Z,95154.20
2019-03-19T16:14:16.437Z,95163.61
2019-03-19T16:16:47.479Z,95163.61
2019-03-19T16:19:18.703Z,95168.14
2019-03-19T16:21:49.903Z,95169.91
2019-03-19T16:24:21.112Z,95163.31
2019-03-19T16:26:52.063Z,95173.80
2019-03-19T16:29:29.363Z,95186.41
2019-03-19T16:32:08.192Z,95182.75
2019-03-19T16:34:48.409Z,95182.75
2019-03-19T16:37:31.704Z,95189.66
2019-03-19T16:40:45.194Z,95189.66
2019-03-19T16:43:47.115Z,95196.23
2019-03-19T16:46:36.370Z,95205.38
2019-03-19T16:49:31.799Z,95216.56
2019-03-19T16:52:06.781Z,95218.62
2019-03-19T16:54:40.221Z,95226.20
2019-03-19T16:57:15.344Z,95232.81
2019-03-19T16:59:46.553Z,95237.84
2019-03-19T17:02:17.798Z,95237.84
2019-03-19T17:04:48.699Z,95249.14
2019-03-19T17:07:20.014Z,95249.14
2019-03-19T17:09:51.183Z,95250.70
2019-03-19T17:12:22.284Z,95250.70
2019-03-19T17:14:53.537Z,95254.63
2019-03-19T17:17:24.537Z,95257.88
2019-03-19T17:19:55.810Z,95263.13
2019-03-19T17:22:26.770Z,95271.47
2019-03-19T17:24:57.990Z,95281.70
2019-03-19T17:27:29.359Z,95281.70
2019-03-19T17:30:00.509Z,95284.25
2019-03-19T17:32:33.468Z,95289.83
2019-03-19T17:35:05.218Z,95289.83
2019-03-19T17:37:36.671Z,95293.80
2019-03-19T17:40:08.312Z,95296.11
2019-03-19T17:42:39.438Z,95305.99
2019-03-19T17:45:10.779Z,95315.83
2019-03-19T17:47:42.005Z,95315.83
2019-03-19T17:50:15.565Z,95316.03
2019-03-19T17:52:46.726Z,95324.96
2019-03-19T17:55:52.260Z,95324.96
2019-03-19T17:58:23.667Z,95328.91
2019-03-19T18:00:55.023Z,95330.25
2019-03-19T18:03:26.319Z,95331.73
2019-03-19T18:05:57.478Z,95334.85
2019-03-19T18:08:28.696Z,95334.85
2019-03-19T18:10:59.752Z,95341.27
2019-03-19T18:13:30.986Z,95345.70
2019-03-19T18:16:02.156Z,95348.57
2019-03-19T18:18:33.505Z,95345.20
2019-03-19T18:21:06.061Z,95359.00
2019-03-19T18:23:37.367Z,95363.09
2019-03-19T18:26:08.413Z,95364.94
2019-03-19T18:28:41.443Z,95362.36
2019-03-19T18:31:12.349Z,95363.38
2019-03-19T18:33:43.693Z,95365.98
2019-03-19T18:36:14.894Z,95373.17
2019-03-19T18:38:46.091Z,95376.47
2019-03-19T18:41:17.478Z,95380.90
2019-03-19T18:43:48.789Z,95379.73
2019-03-19T18:46:20.293Z,95380.41
2019-03-19T18:48:51.610Z,95389.56
2019-03-19T18:51:22.737Z,95389.91
2019-03-19T18:53:53.974Z,95398.76
2019-03-19T18:56:25.028Z,95403.97
2019-03-19T18:58:56.018Z,95399.88
2019-03-19T19:01:27.516Z,95397.08
2019-03-19T19:03:58.922Z,95405.39
2019-03-19T19:06:29.973Z,95413.42
2019-03-19T19:09:01.196Z,95410.27
2019-03-19T19:11:34.012Z,95417.86
2019-03-19T19:14:05.277Z,95414.94
2019-03-19T19:16:36.329Z,95419.49
2019-03-19T19:19:15.316Z,95417.47
2019-03-19T19:22:28.676Z,95418.88
2019-03-19T19:25:35.805Z,95423.45
2019-03-19T19:28:18.928Z,95429.03
2019-03-19T19:30:51.054Z,95427.55
2019-03-19T19:33:21.977Z,95432.58
2019-03-19T19:35:53.420Z,95434.98
2019-03-19T19:38:24.445Z,95430.73
2019-03-19T19:40:55.412Z,95437.16
2019-03-19T19:43:26.436Z,95444.17
2019-03-19T19:45:57.612Z,95446.34
2019-03-19T19:48:28.656Z,95454.69
2019-03-19T19:50:59.974Z,95455.05
2019-03-19T19:53:30.876Z,95455.50
2019-03-19T19:56:01.900Z,95453.62
2019-03-19T19:58:33.375Z,95454.22
2019-03-19T20:01:04.495Z,95456.47
2019-03-19T20:03:35.658Z,95460.10
2019-03-19T20:06:07.015Z,95467.52
2019-03-19T20:08:38.352Z,95474.23
2019-03-19T20:11:09.740Z,95472.38
2019-03-19T20:13:41.099Z,95478.73
2019-03-19T20:16:12.047Z,95479.72
2019-03-19T20:18:43.165Z,95482.06
2019-03-19T20:21:14.406Z,95483.01
2019-03-19T20:23:45.354Z,95482.88
2019-03-19T20:26:16.789Z,95479.83
2019-03-19T20:28:47.739Z,95486.75
2019-03-19T20:31:18.963Z,95491.92
2019-03-19T20:33:50.161Z,95497.25
2019-03-19T20:36:21.623Z,95496.59
2019-03-19T20:38:52.961Z,95505.84
2019-03-19T20:41:24.306Z,95503.07
2019-03-19T20:43:55.734Z,95508.88
2019-03-19T20:46:26.831Z,95507.09
2019-03-19T20:48:58.325Z,95514.01
2019-03-19T20:51:29.334Z,95519.06
2019-03-19T20:54:00.654Z,95520.22
2019-03-19T20:56:31.927Z,95521.52
2019-03-19T20:59:02.864Z,95524.33
2019-03-19T21:01:34.286Z,95513.34
2019-03-19T21:04:05.832Z,95526.09
2019-03-19T21:06:37.138Z,95531.80
2019-03-19T21:09:09.204Z,95531.98
2019-03-19T21:11:40.599Z,95536.89
2019-03-19T21:14:11.536Z,95539.23
2019-03-19T21:16:42.880Z,95538.16
2019-03-19T21:19:14.474Z,95535.83
2019-03-19T21:21:45.893Z,95536.33
2019-03-19T21:24:17.121Z,95534.29
2019-03-19T21:26:48.399Z,95543.23
2019-03-19T21:29:20.781Z,95548.48
2019-03-19T21:31:52.061Z,95541.13
2019-03-19T21:34:23.389Z,95536.90
2019-03-19T21:36:55.766Z,95539.41
2019-03-19T21:39:27.134Z,95537.48
2019-03-19T21:41:58.812Z,95542.58
2019-03-19T21:44:31.190Z,95547.64
2019-03-19T21:47:02.697Z,95544.36
2019-03-19T21:49:34.018Z,95544.84
2019-03-19T21:52:05.519Z,95542.51
2019-03-19T21:54:37.139Z,95548.05
2019-03-19T21:57:08.678Z,95557.40
2019-03-19T21:59:40.091Z,95551.08
2019-03-19T22:02:11.339Z,95547.86
2019-03-19T22:04:42.536Z,95551.89
2019-03-19T22:07:13.831Z,95546.22
2019-03-19T22:09:45.315Z,95549.05
2019-03-19T22:12:16.603Z,95550.20
2019-03-19T22:14:47.835Z,95550.11
2019-03-19T22:17:19.045Z,95554.31
2019-03-19T22:19:50.613Z,95560.55
2019-03-19T22:22:22.322Z,95554.56
2019-03-19T22:24:53.849Z,95542.84
2019-03-19T22:27:25.541Z,95551.70
2019-03-19T22:29:56.744Z,95550.32
2019-03-19T22:32:28.024Z,95553.69
2019-03-19T22:34:59.345Z,95559.58
2019-03-19T22:37:30.770Z,95559.58
2019-03-19T22:40:02.173Z,95553.64
2019-03-19T22:42:34.056Z,95552.88
2019-03-19T22:45:05.979Z,95556.92
2019-03-19T22:47:37.423Z,95556.02
2019-03-19T22:50:09.804Z,95564.16
2019-03-19T22:52:41.078Z,95564.50
2019-03-19T22:55:12.701Z,95561.12
2019-03-19T22:57:44.314Z,95561.12
2019-03-19T23:00:18.835Z,95564.23
2019-03-19T23:02:51.605Z,95565.54
2019-03-19T23:05:23.168Z,95569.92
2019-03-19T23:07:54.446Z,95568.82
2019-03-19T23:10:26.178Z,95573.30
2019-03-19T23:12:57.567Z,95573.30
2019-03-19T23:15:29.223Z,95565.94
2019-03-19T23:18:00.658Z,95570.41
2019-03-19T23:20:32.209Z,95579.59
2019-03-19T23:23:03.507Z,95581.53
2019-03-19T23:25:35.019Z,95581.47
2019-03-19T23:28:07.441Z,95586.30
2019-03-19T23:30:39.214Z,95584.55
2019-03-19T23:33:10.619Z,95589.13
2019-03-19T23:35:42.329Z,95586.72
2019-03-19T23:38:13.656Z,95584.02
2019-03-19T23:40:45.203Z,95586.97
2019-03-19T23:43:16.488Z,95589.34
2019-03-19T23:45:47.775Z,95589.81
2019-03-19T23:48:19.627Z,95591.26
2019-03-19T23:50:51.106Z,95602.58
2019-03-19T23:53:22.877Z,95603.31
2019-03-19T23:55:54.636Z,95603.45
2019-03-19T23:58:26.282Z,95601.81
